sensor_id;sensor_type;location;lat;lon;timestamp;temperature;humidity
3023;DHT22;1521;53.584;9.938;2023-03-21T00:01:52;7.60;99.90
3023;DHT22;1521;53.584;9.938;2023-03-21T00:04:19;7.60;99.90
3023;DHT22;1521;53.584;9.938;2023-03-21T00:06:44;7.70;99.90
3023;DHT22;1521;53.584;9.938;2023-03-21T00:09:10;7.60;99.90
3023;DHT22;1521;53.584;9.938;2023-03-21T00:11:36;7.60;99.90
3023;DHT22;1521;53.584;9.938;2023-03-21T00:14:02;7.60;99.90
3023;DHT22;1521;53.584;9.938;2023-03-21T00:16:28;7.60;99.90
3023;DHT22;1521;53.584;9.938;2023-03-21T00:18:54;7.60;99.90
3023;DHT22;1521;53.584;9.938;2023-03-21T00:21:22;7.70;99.90
3023;DHT22;1521;53.584;9.938;2023-03-21T00:23:57;7.60;99.90
3023;DHT22;1521;53.584;9.938;2023-03-21T00:26:24;7.60;99.90
3023;DHT22;1521;53.584;9.938;2023-03-21T00:28:50;7.60;99.90
3023;DHT22;1521;53.584;9.938;2023-03-21T00:31:18;7.60;99.90
3023;DHT22;1521;53.584;9.938;2023-03-21T00:33:44;7.60;99.90
3023;DHT22;1521;53.584;9.938;2023-03-21T00:36:10;7.60;99.90
3023;DHT22;1521;53.584;9.938;2023-03-21T00:38:36;7.60;99.90
3023;DHT22;1521;53.584;9.938;2023-03-21T00:41:07;7.60;99.90
3023;DHT22;1521;53.584;9.938;2023-03-21T00:43:33;7.60;99.90
3023;DHT22;1521;53.584;9.938;2023-03-21T00:45:59;7.60;99.90
3023;DHT22;1521;53.584;9.938;2023-03-21T00:48:25;7.70;99.90
3023;DHT22;1521;53.584;9.938;2023-03-21T00:50:53;7.60;99.90
3023;DHT22;1521;53.584;9.938;2023-03-21T00:53:20;7.60;99.90
3023;DHT22;1521;53.584;9.938;2023-03-21T00:55:45;7.60;99.90
3023;DHT22;1521;53.584;9.938;2023-03-21T00:58:11;7.70;99.90
3023;DHT22;1521;53.584;9.938;2023-03-21T01:00:37;7.60;99.90
3023;DHT22;1521;53.584;9.938;2023-03-21T01:03:05;7.70;99.90
3023;DHT22;1521;53.584;9.938;2023-03-21T01:05:36;7.70;99.90
3023;DHT22;1521;53.584;9.938;2023-03-21T01:08:21;7.70;99.90
3023;DHT22;1521;53.584;9.938;2023-03-21T01:10:48;7.70;99.90
3023;DHT22;1521;53.584;9.938;2023-03-21T01:13:16;7.70;99.90
3023;DHT22;1521;53.584;9.938;2023-03-21T01:15:45;7.60;99.90
3023;DHT22;1521;53.584;9.938;2023-03-21T01:18:12;7.70;99.90
3023;DHT22;1521;53.584;9.938;2023-03-21T01:20:40;7.70;99.90
3023;DHT22;1521;53.584;9.938;2023-03-21T01:23:07;7.70;99.90
3023;DHT22;1521;53.584;9.938;2023-03-21T01:25:33;7.70;99.90
3023;DHT22;1521;53.584;9.938;2023-03-21T01:27:58;7.70;99.90
3023;DHT22;1521;53.584;9.938;2023-03-21T01:30:24;7.70;99.90
3023;DHT22;1521;53.584;9.938;2023-03-21T01:32:50;7.70;99.90
3023;DHT22;1521;53.584;9.938;2023-03-21T01:35:15;7.70;99.90
3023;DHT22;1521;53.584;9.938;2023-03-21T01:37:41;7.70;99.90
3023;DHT22;1521;53.584;9.938;2023-03-21T01:40:10;7.70;99.90
3023;DHT22;1521;53.584;9.938;2023-03-21T01:42:37;7.70;99.90
3023;DHT22;1521;53.584;9.938;2023-03-21T01:45:57;7.70;99.90
3023;DHT22;1521;53.584;9.938;2023-03-21T01:47:51;7.70;99.90
3023;DHT22;1521;53.584;9.938;2023-03-21T01:50:17;7.70;99.90
3023;DHT22;1521;53.584;9.938;2023-03-21T01:52:47;7.70;99.90
3023;DHT22;1521;53.584;9.938;2023-03-21T01:55:15;7.70;99.90
3023;DHT22;1521;53.584;9.938;2023-03-21T01:57:48;7.70;99.90
3023;DHT22;1521;53.584;9.938;2023-03-21T02:00:19;7.70;99.90
3023;DHT22;1521;53.584;9.938;2023-03-21T02:02:47;7.70;99.90
3023;DHT22;1521;53.584;9.938;2023-03-21T02:05:32;7.70;99.90
3023;DHT22;1521;53.584;9.938;2023-03-21T02:08:02;7.70;99.90
3023;DHT22;1521;53.584;9.938;2023-03-21T02:10:28;7.80;99.90
3023;DHT22;1521;53.584;9.938;2023-03-21T02:12:58;7.80;99.90
3023;DHT22;1521;53.584;9.938;2023-03-21T02:15:35;7.80;99.90
3023;DHT22;1521;53.584;9.938;2023-03-21T02:27:00;7.80;99.90
3023;DHT22;1521;53.584;9.938;2023-03-21T02:32:44;7.80;99.90
3023;DHT22;1521;53.584;9.938;2023-03-21T02:38:10;7.90;99.90
3023;DHT22;1521;53.584;9.938;2023-03-21T02:40:42;7.90;99.90
3023;DHT22;1521;53.584;9.938;2023-03-21T02:43:19;7.80;99.90
3023;DHT22;1521;53.584;9.938;2023-03-21T02:46:02;7.80;99.90
3023;DHT22;1521;53.584;9.938;2023-03-21T02:48:55;7.90;99.90
3023;DHT22;1521;53.584;9.938;2023-03-21T02:51:23;7.90;99.90
3023;DHT22;1521;53.584;9.938;2023-03-21T02:54:06;7.90;99.90
3023;DHT22;1521;53.584;9.938;2023-03-21T02:56:34;7.90;99.90
3023;DHT22;1521;53.584;9.938;2023-03-21T02:59:03;7.90;99.90
3023;DHT22;1521;53.584;9.938;2023-03-21T03:01:29;7.90;99.90
3023;DHT22;1521;53.584;9.938;2023-03-21T03:03:56;7.90;99.90
3023;DHT22;1521;53.584;9.938;2023-03-21T03:06:26;7.90;99.90
3023;DHT22;1521;53.584;9.938;2023-03-21T03:09:03;7.90;99.90
3023;DHT22;1521;53.584;9.938;2023-03-21T03:11:40;8.00;99.90
3023;DHT22;1521;53.584;9.938;2023-03-21T03:14:16;7.90;99.90
3023;DHT22;1521;53.584;9.938;2023-03-21T03:19:35;8.00;99.90
3023;DHT22;1521;53.584;9.938;2023-03-21T03:22:13;7.90;99.90
3023;DHT22;1521;53.584;9.938;2023-03-21T03:25:01;8.00;99.90
3023;DHT22;1521;53.584;9.938;2023-03-21T03:27:35;7.90;99.90
3023;DHT22;1521;53.584;9.938;2023-03-21T03:30:03;7.90;99.90
3023;DHT22;1521;53.584;9.938;2023-03-21T03:32:52;7.90;99.90
3023;DHT22;1521;53.584;9.938;2023-03-21T03:35:20;7.80;99.90
3023;DHT22;1521;53.584;9.938;2023-03-21T03:37:50;7.90;99.90
3023;DHT22;1521;53.584;9.938;2023-03-21T03:40:39;7.90;99.90
3023;DHT22;1521;53.584;9.938;2023-03-21T03:43:18;8.00;99.90
3023;DHT22;1521;53.584;9.938;2023-03-21T03:45:51;7.90;99.90
3023;DHT22;1521;53.584;9.938;2023-03-21T03:48:25;8.00;99.90
3023;DHT22;1521;53.584;9.938;2023-03-21T03:50:55;8.00;99.90
3023;DHT22;1521;53.584;9.938;2023-03-21T03:55:58;8.00;99.90
3023;DHT22;1521;53.584;9.938;2023-03-21T03:58:25;8.00;99.90
3023;DHT22;1521;53.584;9.938;2023-03-21T04:00:52;8.00;99.90
3023;DHT22;1521;53.584;9.938;2023-03-21T04:03:19;8.00;99.90
3023;DHT22;1521;53.584;9.938;2023-03-21T04:05:45;8.10;99.90
3023;DHT22;1521;53.584;9.938;2023-03-21T04:08:12;8.00;99.90
3023;DHT22;1521;53.584;9.938;2023-03-21T04:10:39;8.00;99.90
3023;DHT22;1521;53.584;9.938;2023-03-21T04:13:04;8.10;99.90
3023;DHT22;1521;53.584;9.938;2023-03-21T04:15:30;8.10;99.90
3023;DHT22;1521;53.584;9.938;2023-03-21T04:17:55;8.10;99.90
3023;DHT22;1521;53.584;9.938;2023-03-21T04:20:21;8.00;99.90
3023;DHT22;1521;53.584;9.938;2023-03-21T04:22:47;8.00;99.90
3023;DHT22;1521;53.584;9.938;2023-03-21T04:25:13;8.00;99.90
3023;DHT22;1521;53.584;9.938;2023-03-21T04:27:38;8.10;99.90
3023;DHT22;1521;53.584;9.938;2023-03-21T04:30:05;8.10;99.90
3023;DHT22;1521;53.584;9.938;2023-03-21T04:32:31;8.10;99.90
3023;DHT22;1521;53.584;9.938;2023-03-21T04:34:59;8.10;99.90
3023;DHT22;1521;53.584;9.938;2023-03-21T04:37:25;8.10;99.90
3023;DHT22;1521;53.584;9.938;2023-03-21T04:39:52;8.00;99.90
3023;DHT22;1521;53.584;9.938;2023-03-21T04:42:17;8.10;99.90
3023;DHT22;1521;53.584;9.938;2023-03-21T04:44:44;8.10;99.90
3023;DHT22;1521;53.584;9.938;2023-03-21T04:47:10;8.10;99.90
3023;DHT22;1521;53.584;9.938;2023-03-21T04:49:38;8.20;99.90
3023;DHT22;1521;53.584;9.938;2023-03-21T04:52:04;8.20;99.90
3023;DHT22;1521;53.584;9.938;2023-03-21T04:54:30;8.10;99.90
3023;DHT22;1521;53.584;9.938;2023-03-21T04:56:57;8.10;99.90
3023;DHT22;1521;53.584;9.938;2023-03-21T04:59:23;8.10;99.90
3023;DHT22;1521;53.584;9.938;2023-03-21T05:01:49;8.00;99.90
3023;DHT22;1521;53.584;9.938;2023-03-21T05:04:17;8.10;99.90
3023;DHT22;1521;53.584;9.938;2023-03-21T05:06:44;8.10;99.90
3023;DHT22;1521;53.584;9.938;2023-03-21T05:09:11;8.10;99.90
3023;DHT22;1521;53.584;9.938;2023-03-21T05:11:38;8.10;99.90
3023;DHT22;1521;53.584;9.938;2023-03-21T05:14:07;8.10;99.90
3023;DHT22;1521;53.584;9.938;2023-03-21T05:16:34;8.20;99.90
3023;DHT22;1521;53.584;9.938;2023-03-21T05:19:01;8.10;99.90
3023;DHT22;1521;53.584;9.938;2023-03-21T05:21:31;8.10;99.90
3023;DHT22;1521;53.584;9.938;2023-03-21T05:24:13;8.10;99.90
3023;DHT22;1521;53.584;9.938;2023-03-21T05:26:40;8.20;99.90
3023;DHT22;1521;53.584;9.938;2023-03-21T05:29:06;8.20;99.90
3023;DHT22;1521;53.584;9.938;2023-03-21T05:31:32;8.20;99.90
3023;DHT22;1521;53.584;9.938;2023-03-21T05:33:58;8.20;99.90
3023;DHT22;1521;53.584;9.938;2023-03-21T05:36:24;8.20;99.90
3023;DHT22;1521;53.584;9.938;2023-03-21T05:38:50;8.20;99.90
3023;DHT22;1521;53.584;9.938;2023-03-21T05:41:16;8.20;99.90
3023;DHT22;1521;53.584;9.938;2023-03-21T05:43:42;8.20;99.90
3023;DHT22;1521;53.584;9.938;2023-03-21T05:46:08;8.30;99.90
3023;DHT22;1521;53.584;9.938;2023-03-21T05:48:34;8.30;99.90
3023;DHT22;1521;53.584;9.938;2023-03-21T05:51:01;8.30;99.90
3023;DHT22;1521;53.584;9.938;2023-03-21T05:53:27;8.40;99.90
3023;DHT22;1521;53.584;9.938;2023-03-21T05:55:52;8.40;99.90
3023;DHT22;1521;53.584;9.938;2023-03-21T05:58:18;8.40;99.90
3023;DHT22;1521;53.584;9.938;2023-03-21T06:00:43;8.40;99.90
3023;DHT22;1521;53.584;9.938;2023-03-21T06:03:09;8.40;99.90
3023;DHT22;1521;53.584;9.938;2023-03-21T06:05:35;8.40;99.90
3023;DHT22;1521;53.584;9.938;2023-03-21T06:08:01;8.50;99.90
3023;DHT22;1521;53.584;9.938;2023-03-21T06:10:26;8.40;99.90
3023;DHT22;1521;53.584;9.938;2023-03-21T06:12:52;8.50;99.90
3023;DHT22;1521;53.584;9.938;2023-03-21T06:15:18;8.50;99.90
3023;DHT22;1521;53.584;9.938;2023-03-21T06:17:43;8.50;99.90
3023;DHT22;1521;53.584;9.938;2023-03-21T06:20:09;8.60;99.90
3023;DHT22;1521;53.584;9.938;2023-03-21T06:22:36;8.60;99.90
3023;DHT22;1521;53.584;9.938;2023-03-21T06:25:02;8.60;99.90
3023;DHT22;1521;53.584;9.938;2023-03-21T06:27:27;8.60;99.90
3023;DHT22;1521;53.584;9.938;2023-03-21T06:29:53;8.50;99.90
3023;DHT22;1521;53.584;9.938;2023-03-21T06:32:18;8.50;99.90
3023;DHT22;1521;53.584;9.938;2023-03-21T06:34:44;8.60;99.90
3023;DHT22;1521;53.584;9.938;2023-03-21T06:37:10;8.60;99.90
3023;DHT22;1521;53.584;9.938;2023-03-21T06:39:35;8.60;99.90
3023;DHT22;1521;53.584;9.938;2023-03-21T06:42:01;8.60;99.90
3023;DHT22;1521;53.584;9.938;2023-03-21T06:44:27;8.70;99.90
3023;DHT22;1521;53.584;9.938;2023-03-21T06:46:53;8.60;99.90
3023;DHT22;1521;53.584;9.938;2023-03-21T06:49:19;8.60;99.90
3023;DHT22;1521;53.584;9.938;2023-03-21T06:51:45;8.70;99.90
3023;DHT22;1521;53.584;9.938;2023-03-21T06:54:11;8.70;99.90
3023;DHT22;1521;53.584;9.938;2023-03-21T06:56:38;8.80;99.90
3023;DHT22;1521;53.584;9.938;2023-03-21T06:59:03;8.80;99.90
3023;DHT22;1521;53.584;9.938;2023-03-21T07:01:29;8.90;99.90
3023;DHT22;1521;53.584;9.938;2023-03-21T07:03:55;8.80;99.90
3023;DHT22;1521;53.584;9.938;2023-03-21T07:06:22;8.80;99.90
3023;DHT22;1521;53.584;9.938;2023-03-21T07:08:51;8.80;99.90
3023;DHT22;1521;53.584;9.938;2023-03-21T07:11:17;8.80;99.90
3023;DHT22;1521;53.584;9.938;2023-03-21T07:13:43;8.90;99.90
3023;DHT22;1521;53.584;9.938;2023-03-21T07:16:09;8.90;99.90
3023;DHT22;1521;53.584;9.938;2023-03-21T07:18:35;8.90;99.90
3023;DHT22;1521;53.584;9.938;2023-03-21T07:21:01;8.90;99.90
3023;DHT22;1521;53.584;9.938;2023-03-21T07:23:27;9.00;99.90
3023;DHT22;1521;53.584;9.938;2023-03-21T07:25:53;9.00;99.90
3023;DHT22;1521;53.584;9.938;2023-03-21T07:28:20;9.00;99.90
3023;DHT22;1521;53.584;9.938;2023-03-21T07:30:52;9.00;99.90
3023;DHT22;1521;53.584;9.938;2023-03-21T07:33:18;9.10;99.90
3023;DHT22;1521;53.584;9.938;2023-03-21T07:35:44;9.00;99.90
3023;DHT22;1521;53.584;9.938;2023-03-21T07:38:10;9.00;99.90
3023;DHT22;1521;53.584;9.938;2023-03-21T07:40:35;9.10;99.90
3023;DHT22;1521;53.584;9.938;2023-03-21T07:43:01;9.10;99.90
3023;DHT22;1521;53.584;9.938;2023-03-21T07:45:26;9.10;99.90
3023;DHT22;1521;53.584;9.938;2023-03-21T07:47:52;9.10;99.90
3023;DHT22;1521;53.584;9.938;2023-03-21T07:50:19;9.20;99.90
3023;DHT22;1521;53.584;9.938;2023-03-21T07:52:45;9.20;99.90
3023;DHT22;1521;53.584;9.938;2023-03-21T07:55:11;9.20;99.90
3023;DHT22;1521;53.584;9.938;2023-03-21T07:57:37;9.20;99.90
3023;DHT22;1521;53.584;9.938;2023-03-21T08:00:04;9.30;99.90
3023;DHT22;1521;53.584;9.938;2023-03-21T08:02:31;9.20;99.90
3023;DHT22;1521;53.584;9.938;2023-03-21T08:04:56;9.30;99.90
3023;DHT22;1521;53.584;9.938;2023-03-21T08:07:22;9.30;99.90
3023;DHT22;1521;53.584;9.938;2023-03-21T08:09:47;9.30;99.90
3023;DHT22;1521;53.584;9.938;2023-03-21T08:12:13;9.20;99.90
3023;DHT22;1521;53.584;9.938;2023-03-21T08:14:39;9.20;99.90
3023;DHT22;1521;53.584;9.938;2023-03-21T08:17:05;9.10;99.90
3023;DHT22;1521;53.584;9.938;2023-03-21T08:19:31;9.20;99.90
3023;DHT22;1521;53.584;9.938;2023-03-21T08:21:56;9.30;99.90
3023;DHT22;1521;53.584;9.938;2023-03-21T08:24:26;9.30;99.90
3023;DHT22;1521;53.584;9.938;2023-03-21T08:26:53;9.30;99.90
3023;DHT22;1521;53.584;9.938;2023-03-21T08:29:18;9.40;99.90
3023;DHT22;1521;53.584;9.938;2023-03-21T08:31:45;9.40;99.90
3023;DHT22;1521;53.584;9.938;2023-03-21T08:34:11;9.30;99.90
3023;DHT22;1521;53.584;9.938;2023-03-21T08:36:38;9.30;99.90
3023;DHT22;1521;53.584;9.938;2023-03-21T08:39:04;9.40;99.90
3023;DHT22;1521;53.584;9.938;2023-03-21T08:41:37;9.40;99.90
3023;DHT22;1521;53.584;9.938;2023-03-21T08:44:04;9.40;99.90
3023;DHT22;1521;53.584;9.938;2023-03-21T08:46:30;9.50;99.90
3023;DHT22;1521;53.584;9.938;2023-03-21T08:48:56;9.50;99.90
3023;DHT22;1521;53.584;9.938;2023-03-21T08:51:22;9.50;99.90
3023;DHT22;1521;53.584;9.938;2023-03-21T08:53:48;9.50;99.90
3023;DHT22;1521;53.584;9.938;2023-03-21T08:56:16;9.60;99.90
3023;DHT22;1521;53.584;9.938;2023-03-21T08:58:42;9.60;99.90
3023;DHT22;1521;53.584;9.938;2023-03-21T09:01:08;9.60;99.90
3023;DHT22;1521;53.584;9.938;2023-03-21T09:03:36;9.60;99.90
3023;DHT22;1521;53.584;9.938;2023-03-21T09:06:03;9.60;99.90
3023;DHT22;1521;53.584;9.938;2023-03-21T09:08:28;9.70;99.90
3023;DHT22;1521;53.584;9.938;2023-03-21T09:10:55;9.70;99.90
3023;DHT22;1521;53.584;9.938;2023-03-21T09:13:22;9.70;99.90
3023;DHT22;1521;53.584;9.938;2023-03-21T09:15:48;9.70;99.90
3023;DHT22;1521;53.584;9.938;2023-03-21T09:18:14;9.70;99.90
3023;DHT22;1521;53.584;9.938;2023-03-21T09:20:46;9.80;99.90
3023;DHT22;1521;53.584;9.938;2023-03-21T09:23:13;9.80;99.90
3023;DHT22;1521;53.584;9.938;2023-03-21T09:25:40;9.80;99.90
3023;DHT22;1521;53.584;9.938;2023-03-21T09:28:07;9.90;99.90
3023;DHT22;1521;53.584;9.938;2023-03-21T09:30:34;9.90;99.90
3023;DHT22;1521;53.584;9.938;2023-03-21T09:33:01;9.90;99.90
3023;DHT22;1521;53.584;9.938;2023-03-21T09:35:28;10.00;99.90
3023;DHT22;1521;53.584;9.938;2023-03-21T09:37:54;10.00;99.90
3023;DHT22;1521;53.584;9.938;2023-03-21T09:46:13;10.20;99.90
3023;DHT22;1521;53.584;9.938;2023-03-21T09:51:09;10.20;99.90
3023;DHT22;1521;53.584;9.938;2023-03-21T09:53:40;10.20;99.90
3023;DHT22;1521;53.584;9.938;2023-03-21T09:56:09;10.30;99.90
3023;DHT22;1521;53.584;9.938;2023-03-21T09:58:49;10.30;99.90
3023;DHT22;1521;53.584;9.938;2023-03-21T10:01:22;10.30;99.90
3023;DHT22;1521;53.584;9.938;2023-03-21T10:04:07;10.30;99.90
3023;DHT22;1521;53.584;9.938;2023-03-21T10:06:37;10.30;99.90
3023;DHT22;1521;53.584;9.938;2023-03-21T10:14:51;10.30;99.90
3023;DHT22;1521;53.584;9.938;2023-03-21T10:20:19;10.50;99.90
3023;DHT22;1521;53.584;9.938;2023-03-21T10:22:47;10.50;99.90
3023;DHT22;1521;53.584;9.938;2023-03-21T10:25:30;10.50;99.90
3023;DHT22;1521;53.584;9.938;2023-03-21T10:27:56;10.40;99.90
3023;DHT22;1521;53.584;9.938;2023-03-21T10:30:37;10.40;99.90
3023;DHT22;1521;53.584;9.938;2023-03-21T10:33:06;10.40;99.90
3023;DHT22;1521;53.584;9.938;2023-03-21T10:35:35;10.50;99.90
3023;DHT22;1521;53.584;9.938;2023-03-21T10:38:02;10.40;99.90
3023;DHT22;1521;53.584;9.938;2023-03-21T10:40:28;10.40;99.90
3023;DHT22;1521;53.584;9.938;2023-03-21T10:42:55;10.50;99.90
3023;DHT22;1521;53.584;9.938;2023-03-21T10:45:22;10.50;99.90
3023;DHT22;1521;53.584;9.938;2023-03-21T10:47:49;10.40;99.90
3023;DHT22;1521;53.584;9.938;2023-03-21T10:50:18;10.40;99.90
3023;DHT22;1521;53.584;9.938;2023-03-21T10:52:50;10.40;99.90
3023;DHT22;1521;53.584;9.938;2023-03-21T10:58:03;10.40;99.90
3023;DHT22;1521;53.584;9.938;2023-03-21T11:00:42;10.40;99.90
3023;DHT22;1521;53.584;9.938;2023-03-21T11:03:34;10.40;99.90
3023;DHT22;1521;53.584;9.938;2023-03-21T11:06:07;10.30;99.90
3023;DHT22;1521;53.584;9.938;2023-03-21T11:08:43;10.20;99.90
3023;DHT22;1521;53.584;9.938;2023-03-21T11:11:25;10.20;99.90
3023;DHT22;1521;53.584;9.938;2023-03-21T11:13:59;10.30;99.90
3023;DHT22;1521;53.584;9.938;2023-03-21T11:16:31;10.30;99.90
3023;DHT22;1521;53.584;9.938;2023-03-21T11:19:02;10.30;99.90
3023;DHT22;1521;53.584;9.938;2023-03-21T11:21:35;10.30;99.90
3023;DHT22;1521;53.584;9.938;2023-03-21T11:24:02;10.30;99.90
3023;DHT22;1521;53.584;9.938;2023-03-21T11:26:35;10.40;99.90
3023;DHT22;1521;53.584;9.938;2023-03-21T11:29:31;10.40;99.90
3023;DHT22;1521;53.584;9.938;2023-03-21T11:32:31;10.50;99.90
3023;DHT22;1521;53.584;9.938;2023-03-21T11:35:04;10.60;99.90
3023;DHT22;1521;53.584;9.938;2023-03-21T11:37:33;10.50;99.90
3023;DHT22;1521;53.584;9.938;2023-03-21T11:42:48;10.60;99.90
3023;DHT22;1521;53.584;9.938;2023-03-21T11:45:26;10.60;99.90
3023;DHT22;1521;53.584;9.938;2023-03-21T11:47:57;10.70;99.90
3023;DHT22;1521;53.584;9.938;2023-03-21T11:50:37;10.60;99.90
3023;DHT22;1521;53.584;9.938;2023-03-21T11:53:12;10.70;99.90
3023;DHT22;1521;53.584;9.938;2023-03-21T12:04:26;10.40;99.90
3023;DHT22;1521;53.584;9.938;2023-03-21T12:07:01;10.60;99.90
3023;DHT22;1521;53.584;9.938;2023-03-21T12:14:58;11.20;99.90
3023;DHT22;1521;53.584;9.938;2023-03-21T12:17:39;11.30;99.90
3023;DHT22;1521;53.584;9.938;2023-03-21T12:25:31;11.00;1.00
3023;DHT22;1521;53.584;9.938;2023-03-21T12:31:08;11.00;46.10
3023;DHT22;1521;53.584;9.938;2023-03-21T12:39:10;10.80;1.00
3023;DHT22;1521;53.584;9.938;2023-03-21T12:41:42;10.70;2.80
3023;DHT22;1521;53.584;9.938;2023-03-21T12:44:14;10.60;37.20
3023;DHT22;1521;53.584;9.938;2023-03-21T12:46:44;10.70;61.90
3023;DHT22;1521;53.584;9.938;2023-03-21T12:52:05;10.60;73.40
3023;DHT22;1521;53.584;9.938;2023-03-21T12:54:40;10.60;62.70
3023;DHT22;1521;53.584;9.938;2023-03-21T12:57:28;10.60;71.00
3023;DHT22;1521;53.584;9.938;2023-03-21T13:02:42;10.60;98.90
3023;DHT22;1521;53.584;9.938;2023-03-21T13:05:25;10.70;99.90
3023;DHT22;1521;53.584;9.938;2023-03-21T13:08:15;10.60;92.70
3023;DHT22;1521;53.584;9.938;2023-03-21T13:10:45;10.60;89.80
3023;DHT22;1521;53.584;9.938;2023-03-21T13:13:38;10.60;92.00
3023;DHT22;1521;53.584;9.938;2023-03-21T13:16:08;10.70;95.30
3023;DHT22;1521;53.584;9.938;2023-03-21T13:18:50;10.70;94.40
3023;DHT22;1521;53.584;9.938;2023-03-21T13:21:27;10.70;99.90
3023;DHT22;1521;53.584;9.938;2023-03-21T13:30:04;10.80;99.90
3023;DHT22;1521;53.584;9.938;2023-03-21T13:32:37;10.80;86.60
3023;DHT22;1521;53.584;9.938;2023-03-21T13:37:43;10.70;95.60
3023;DHT22;1521;53.584;9.938;2023-03-21T13:40:22;10.70;94.70
3023;DHT22;1521;53.584;9.938;2023-03-21T13:42:58;10.70;90.40
3023;DHT22;1521;53.584;9.938;2023-03-21T13:45:31;10.70;91.00
3023;DHT22;1521;53.584;9.938;2023-03-21T13:48:05;10.70;95.50
3023;DHT22;1521;53.584;9.938;2023-03-21T13:50:59;10.70;80.30
3023;DHT22;1521;53.584;9.938;2023-03-21T13:53:30;10.70;90.00
3023;DHT22;1521;53.584;9.938;2023-03-21T14:01:23;10.60;54.00
3023;DHT22;1521;53.584;9.938;2023-03-21T14:04:03;10.60;57.90
3023;DHT22;1521;53.584;9.938;2023-03-21T14:06:41;10.60;76.40
3023;DHT22;1521;53.584;9.938;2023-03-21T14:09:08;10.70;93.30
3023;DHT22;1521;53.584;9.938;2023-03-21T14:11:39;10.70;95.80
3023;DHT22;1521;53.584;9.938;2023-03-21T14:14:07;10.60;79.10
3023;DHT22;1521;53.584;9.938;2023-03-21T14:16:34;10.60;87.70
3023;DHT22;1521;53.584;9.938;2023-03-21T14:19:03;10.60;99.90
3023;DHT22;1521;53.584;9.938;2023-03-21T14:21:31;10.60;99.90
3023;DHT22;1521;53.584;9.938;2023-03-21T14:24:20;10.60;99.90
3023;DHT22;1521;53.584;9.938;2023-03-21T14:26:49;10.60;99.90
3023;DHT22;1521;53.584;9.938;2023-03-21T14:29:33;10.60;99.90
3023;DHT22;1521;53.584;9.938;2023-03-21T14:31:59;10.70;99.90
3023;DHT22;1521;53.584;9.938;2023-03-21T14:34:27;10.60;92.90
3023;DHT22;1521;53.584;9.938;2023-03-21T14:36:53;10.60;98.50
3023;DHT22;1521;53.584;9.938;2023-03-21T14:39:22;10.50;99.90
3023;DHT22;1521;53.584;9.938;2023-03-21T14:41:49;10.50;99.90
3023;DHT22;1521;53.584;9.938;2023-03-21T14:46:51;10.50;99.90
3023;DHT22;1521;53.584;9.938;2023-03-21T14:49:27;10.50;99.90
3023;DHT22;1521;53.584;9.938;2023-03-21T14:51:56;10.50;99.90
3023;DHT22;1521;53.584;9.938;2023-03-21T14:54:22;10.50;99.90
3023;DHT22;1521;53.584;9.938;2023-03-21T14:56:51;10.50;99.90
3023;DHT22;1521;53.584;9.938;2023-03-21T14:59:21;10.50;99.90
3023;DHT22;1521;53.584;9.938;2023-03-21T15:01:49;10.60;99.90
3023;DHT22;1521;53.584;9.938;2023-03-21T15:04:15;10.60;99.90
3023;DHT22;1521;53.584;9.938;2023-03-21T15:06:53;10.60;99.90
3023;DHT22;1521;53.584;9.938;2023-03-21T15:09:22;10.60;99.90
3023;DHT22;1521;53.584;9.938;2023-03-21T15:11:51;10.60;99.90
3023;DHT22;1521;53.584;9.938;2023-03-21T15:14:18;10.60;99.90
3023;DHT22;1521;53.584;9.938;2023-03-21T15:16:46;10.60;99.90
3023;DHT22;1521;53.584;9.938;2023-03-21T15:19:16;10.60;99.90
3023;DHT22;1521;53.584;9.938;2023-03-21T15:21:46;10.60;99.90
3023;DHT22;1521;53.584;9.938;2023-03-21T15:24:26;10.60;99.90
3023;DHT22;1521;53.584;9.938;2023-03-21T15:26:58;10.60;99.90
3023;DHT22;1521;53.584;9.938;2023-03-21T15:29:24;10.60;99.90
3023;DHT22;1521;53.584;9.938;2023-03-21T15:31:51;10.60;99.90
3023;DHT22;1521;53.584;9.938;2023-03-21T15:34:23;10.50;99.90
3023;DHT22;1521;53.584;9.938;2023-03-21T15:36:55;10.50;99.90
3023;DHT22;1521;53.584;9.938;2023-03-21T15:39:21;10.40;99.90
3023;DHT22;1521;53.584;9.938;2023-03-21T15:42:05;10.40;99.90
3023;DHT22;1521;53.584;9.938;2023-03-21T15:44:33;10.40;99.90
3023;DHT22;1521;53.584;9.938;2023-03-21T15:47:01;10.40;93.10
3023;DHT22;1521;53.584;9.938;2023-03-21T15:49:31;10.40;60.80
3023;DHT22;1521;53.584;9.938;2023-03-21T15:52:05;10.40;56.60
3023;DHT22;1521;53.584;9.938;2023-03-21T15:54:34;10.40;81.90
3023;DHT22;1521;53.584;9.938;2023-03-21T15:57:04;10.50;84.30
3023;DHT22;1521;53.584;9.938;2023-03-21T15:59:37;10.50;57.60
3023;DHT22;1521;53.584;9.938;2023-03-21T16:02:03;10.40;25.60
3023;DHT22;1521;53.584;9.938;2023-03-21T16:04:29;10.30;19.60
3023;DHT22;1521;53.584;9.938;2023-03-21T16:07:12;10.20;1.00
3023;DHT22;1521;53.584;9.938;2023-03-21T16:09:45;10.20;1.00
3023;DHT22;1521;53.584;9.938;2023-03-21T16:12:13;10.10;1.00
3023;DHT22;1521;53.584;9.938;2023-03-21T16:14:39;10.00;1.00
3023;DHT22;1521;53.584;9.938;2023-03-21T16:17:32;10.00;1.00
3023;DHT22;1521;53.584;9.938;2023-03-21T16:20:02;9.90;1.00
3023;DHT22;1521;53.584;9.938;2023-03-21T16:22:29;9.90;1.00
3023;DHT22;1521;53.584;9.938;2023-03-21T16:24:59;9.90;1.00
3023;DHT22;1521;53.584;9.938;2023-03-21T16:27:25;9.90;1.00
3023;DHT22;1521;53.584;9.938;2023-03-21T16:29:50;9.90;1.00
3023;DHT22;1521;53.584;9.938;2023-03-21T16:32:16;9.90;1.00
3023;DHT22;1521;53.584;9.938;2023-03-21T16:34:42;9.90;1.00
3023;DHT22;1521;53.584;9.938;2023-03-21T16:37:11;9.90;1.00
3023;DHT22;1521;53.584;9.938;2023-03-21T16:39:37;9.90;1.00
3023;DHT22;1521;53.584;9.938;2023-03-21T16:42:03;9.90;1.00
3023;DHT22;1521;53.584;9.938;2023-03-21T16:44:28;10.00;1.00
3023;DHT22;1521;53.584;9.938;2023-03-21T16:46:54;10.00;1.00
3023;DHT22;1521;53.584;9.938;2023-03-21T16:49:23;9.90;1.00
3023;DHT22;1521;53.584;9.938;2023-03-21T16:51:49;9.80;1.00
3023;DHT22;1521;53.584;9.938;2023-03-21T16:54:15;9.80;1.00
3023;DHT22;1521;53.584;9.938;2023-03-21T16:56:48;9.80;1.00
3023;DHT22;1521;53.584;9.938;2023-03-21T16:59:14;9.70;1.00
3023;DHT22;1521;53.584;9.938;2023-03-21T17:01:41;9.70;8.70
3023;DHT22;1521;53.584;9.938;2023-03-21T17:04:10;9.80;16.20
3023;DHT22;1521;53.584;9.938;2023-03-21T17:06:40;9.80;9.20
3023;DHT22;1521;53.584;9.938;2023-03-21T17:09:09;9.80;8.50
3023;DHT22;1521;53.584;9.938;2023-03-21T17:11:35;9.80;10.60
3023;DHT22;1521;53.584;9.938;2023-03-21T17:14:01;9.80;1.00
3023;DHT22;1521;53.584;9.938;2023-03-21T17:16:27;9.70;1.00
3023;DHT22;1521;53.584;9.938;2023-03-21T17:18:53;9.80;14.20
3023;DHT22;1521;53.584;9.938;2023-03-21T17:21:22;9.80;23.80
3023;DHT22;1521;53.584;9.938;2023-03-21T17:23:48;9.70;21.60
3023;DHT22;1521;53.584;9.938;2023-03-21T17:26:20;9.80;39.30
3023;DHT22;1521;53.584;9.938;2023-03-21T17:28:46;9.70;37.80
3023;DHT22;1521;53.584;9.938;2023-03-21T17:31:20;9.80;57.10
3023;DHT22;1521;53.584;9.938;2023-03-21T17:33:47;9.80;59.40
3023;DHT22;1521;53.584;9.938;2023-03-21T17:36:15;9.70;67.50
3023;DHT22;1521;53.584;9.938;2023-03-21T17:38:42;9.70;88.30
3023;DHT22;1521;53.584;9.938;2023-03-21T17:41:14;9.80;97.00
3023;DHT22;1521;53.584;9.938;2023-03-21T17:43:40;9.80;99.90
3023;DHT22;1521;53.584;9.938;2023-03-21T17:46:08;9.80;99.90
3023;DHT22;1521;53.584;9.938;2023-03-21T17:48:35;9.80;99.90
3023;DHT22;1521;53.584;9.938;2023-03-21T17:51:01;9.90;99.90
3023;DHT22;1521;53.584;9.938;2023-03-21T17:53:27;9.80;99.90
3023;DHT22;1521;53.584;9.938;2023-03-21T17:55:53;9.90;99.90
3023;DHT22;1521;53.584;9.938;2023-03-21T17:58:18;9.80;99.90
3023;DHT22;1521;53.584;9.938;2023-03-21T18:00:44;9.90;99.90
3023;DHT22;1521;53.584;9.938;2023-03-21T18:03:11;9.90;99.90